Time;durP1;ratioP1;P1;durP2;ratioP2;P2;SDS_P1;SDS_P2;PMS_P1;PMS_P2;Temp;Humidity;BMP_temperature;BMP_pressure;BME280_temperature;BME280_humidity;BME280_pressure;Samples;Min_cycle;Max_cycle;Signal;HPM_P1;HPM_P2
2021/01/06 00:00:39;;;;;;;;;;;;;;;0.50;89.05;98515.72;5092285;28;20488;-80
2021/01/06 00:03:05;;;;;;;17.77;8.67;;;;;;;0.38;88.68;98514.16;5091504;28;20384;-81
2021/01/06 00:05:31;;;;;;;21.57;9.80;;;;;;;0.56;88.25;98525.03;5091396;28;20044;-80
2021/01/06 00:07:58;;;;;;;13.60;8.07;;;;;;;0.37;87.82;98512.44;5091579;28;20062;-80
2021/01/06 00:10:27;;;;;;;20.57;8.67;;;;;;;0.48;88.43;98525.72;5091557;28;20117;-80
2021/01/06 00:12:54;;;;;;;18.15;9.40;;;;;;;0.46;87.84;98538.38;5091588;28;20452;-81
2021/01/06 00:15:23;;;;;;;18.50;8.60;;;;;;;0.41;88.70;98531.75;5091172;28;20506;-81
2021/01/06 00:17:50;;;;;;;13.80;8.43;;;;;;;0.22;89.25;98522.66;5091320;28;20601;-81
2021/01/06 00:20:19;;;;;;;19.43;8.47;;;;;;;0.32;89.03;98512.03;5091482;28;20048;-80
2021/01/06 00:22:45;;;;;;;19.97;8.20;;;;;;;0.43;88.03;98527.94;5091233;28;20058;-80
2021/01/06 00:25:16;;;;;;;14.50;8.07;;;;;;;0.52;87.92;98534.31;5090955;28;20044;-81
2021/01/06 00:27:43;;;;;;;19.60;7.90;;;;;;;0.31;88.83;98513.84;5091663;28;20055;-81
2021/01/06 00:30:15;;;;;;;18.60;9.17;;;;;;;0.47;87.93;98526.69;5091195;28;20044;-80
2021/01/06 00:32:44;;;;;;;22.03;8.53;;;;;;;0.38;88.81;98523.97;5091478;28;20094;-81
2021/01/06 00:35:11;;;;;;;16.83;7.37;;;;;;;0.37;89.18;98541.03;5090748;28;20101;-80
2021/01/06 00:37:37;;;;;;;18.07;8.33;;;;;;;0.23;89.07;98516.34;5091698;28;20075;-81
2021/01/06 00:40:05;;;;;;;18.97;8.40;;;;;;;0.42;89.00;98539.66;5093094;28;20476;-80
2021/01/06 00:42:35;;;;;;;18.67;8.90;;;;;;;0.35;89.03;98536.66;5094816;28;20044;-80
2021/01/06 00:45:01;;;;;;;15.07;7.75;;;;;;;0.39;88.29;98544.41;5094816;28;20488;-81
2021/01/06 00:47:28;;;;;;;16.23;7.17;;;;;;;0.28;89.18;98537.34;5095185;28;20059;-81
2021/01/06 00:49:54;;;;;;;21.37;8.67;;;;;;;0.35;88.30;98525.97;5095117;28;20051;-80
2021/01/06 00:52:23;;;;;;;16.70;7.90;;;;;;;0.30;89.26;98532.69;5094942;28;20056;-80
2021/01/06 00:54:49;;;;;;;19.00;7.95;;;;;;;0.21;88.89;98512.97;5094818;28;20052;-80
2021/01/06 00:57:16;;;;;;;13.50;7.50;;;;;;;0.27;89.51;98527.59;5094797;28;20047;-80
2021/01/06 00:59:42;;;;;;;11.03;6.50;;;;;;;0.18;89.17;98515.91;5095371;28;20051;-80
2021/01/06 01:02:08;;;;;;;16.77;7.77;;;;;;;0.24;89.37;98526.06;5094946;28;20396;-80
2021/01/06 01:04:35;;;;;;;12.27;6.13;;;;;;;0.11;89.69;98514.75;5094580;28;20491;-81
2021/01/06 01:07:01;;;;;;;13.70;7.60;;;;;;;0.12;89.87;98521.78;5095198;28;20056;-80
2021/01/06 01:09:28;;;;;;;14.57;7.60;;;;;;;0.24;89.16;98528.75;5095189;28;20051;-80
2021/01/06 01:11:55;;;;;;;16.03;8.13;;;;;;;0.35;88.81;98533.16;5094950;28;20052;-80
2021/01/06 01:14:21;;;;;;;19.00;8.23;;;;;;;0.30;88.54;98525.53;5094665;28;20051;-80
2021/01/06 01:16:49;;;;;;;21.70;9.33;;;;;;;0.23;88.59;98515.53;5094412;28;20074;-80
2021/01/06 01:19:16;;;;;;;17.60;8.93;;;;;;;0.26;88.55;98526.78;5094413;28;20503;-81
2021/01/06 01:21:42;;;;;;;17.23;8.30;;;;;;;0.29;88.03;98531.84;5094614;28;20044;-80
2021/01/06 01:24:08;;;;;;;18.17;8.47;;;;;;;0.41;88.21;98547.81;5094404;28;20037;-80
2021/01/06 01:26:35;;;;;;;18.70;8.23;;;;;;;0.34;87.49;98529.59;5094402;28;20100;-81
2021/01/06 01:29:02;;;;;;;15.20;8.30;;;;;;;0.35;87.77;98536.66;5094472;28;20557;-80
2021/01/06 01:31:32;;;;;;;15.70;7.67;;;;;;;0.33;88.51;98530.59;5093934;28;20044;-80
2021/01/06 01:33:59;;;;;;;18.80;7.63;;;;;;;0.40;88.11;98538.09;5094225;28;20056;-80
2021/01/06 01:36:26;;;;;;;13.20;7.47;;;;;;;0.20;87.97;98513.94;5093556;28;20056;-80
2021/01/06 01:38:52;;;;;;;18.60;8.00;;;;;;;0.17;88.11;98523.06;5094239;28;20044;-80
2021/01/06 01:41:22;;;;;;;14.30;6.87;;;;;;;0.21;89.48;98542.38;5094297;28;20047;-80
2021/01/06 01:43:49;;;;;;;14.80;8.13;;;;;;;0.06;88.81;98535.69;5094908;28;20055;-80
2021/01/06 01:46:37;;;;;;;17.93;8.17;;;;;;;0.16;89.20;98542.75;5095474;28;20549;-80
2021/01/06 01:49:09;;;;;;;12.90;7.37;;;;;;;-0.09;89.87;98520.03;5096457;28;20051;-80
2021/01/06 01:51:45;;;;;;;14.00;7.03;;;;;;;-0.01;89.75;98530.88;5094950;28;20069;-80
2021/01/06 01:54:13;;;;;;;14.87;7.33;;;;;;;0.05;89.51;98532.19;5095748;28;20048;-81
2021/01/06 01:56:46;;;;;;;16.23;7.30;;;;;;;0.07;89.44;98542.72;5096254;28;20055;-80
2021/01/06 01:59:19;;;;;;;16.40;8.27;;;;;;;0.03;89.24;98535.94;5096174;28;20075;-80
2021/01/06 02:01:48;;;;;;;18.47;8.87;;;;;;;0.26;88.75;98541.97;5096340;28;20052;-80
2021/01/06 02:04:21;;;;;;;15.75;8.32;;;;;;;0.25;88.73;98553.66;5095650;28;20066;-80
2021/01/06 02:06:55;;;;;;;17.30;8.67;;;;;;;0.06;89.17;98535.69;5095694;28;20132;-80
2021/01/06 02:09:26;;;;;;;16.93;7.67;;;;;;;-0.03;89.23;98527.50;5096084;28;20056;-81
2021/01/06 02:11:59;;;;;;;16.23;7.90;;;;;;;0.12;89.04;98546.69;5095515;28;20051;-80
2021/01/06 02:14:32;;;;;;;14.87;8.10;;;;;;;0.01;89.66;98549.44;5093233;28;20044;-80
2021/01/06 02:17:04;;;;;;;14.73;7.87;;;;;;;-0.08;90.10;98524.38;5093087;28;20507;-80
2021/01/06 02:19:33;;;;;;;16.17;8.00;;;;;;;0.12;89.63;98546.69;5093255;28;20496;-81
2021/01/06 02:22:00;;;;;;;16.77;8.60;;;;;;;0.14;89.64;98544.72;5093482;28;20070;-80
2021/01/06 02:24:27;;;;;;;13.37;6.67;;;;;;;0.00;89.91;98537.09;5092801;28;20040;-80
2021/01/06 02:26:53;;;;;;;20.30;8.13;;;;;;;0.06;89.56;98528.53;5093600;28;20060;-80
2021/01/06 02:29:20;;;;;;;15.03;7.10;;;;;;;-0.04;90.41;98528.47;5092972;28;20442;-81
2021/01/06 02:31:46;;;;;;;13.93;6.73;;;;;;;-0.20;90.58;98514.75;5093224;28;20499;-81
2021/01/06 02:34:13;;;;;;;16.47;7.63;;;;;;;-0.11;90.45;98526.47;5092481;28;20067;-81
2021/01/06 02:36:39;;;;;;;14.97;7.43;;;;;;;-0.05;90.44;98526.78;5092595;28;20446;-81
2021/01/06 02:39:09;;;;;;;18.67;7.90;;;;;;;-0.06;90.34;98514.41;5092971;28;20044;-80
2021/01/06 02:41:36;;;;;;;;;;;;;;;-0.08;90.40;98524.38;5093339;28;20040;-80
2021/01/06 02:44:03;;;;;;;11.80;5.73;;;;;;;-0.32;90.79;98507.78;5092944;28;19920;-80
2021/01/06 02:46:32;;;;;;;14.50;7.67;;;;;;;-0.01;90.01;98522.84;5091342;28;20052;-81
2021/01/06 02:48:59;;;;;;;14.63;7.50;;;;;;;-0.18;90.64;98507.47;5092765;28;20059;-80
2021/01/06 02:51:34;;;;;;;14.30;7.30;;;;;;;-0.04;90.11;98528.47;5092491;28;20048;-80
2021/01/06 02:54:05;;;;;;;12.43;7.53;;;;;;;0.01;90.07;98528.06;5093036;28;20420;-80
2021/01/06 02:56:33;;;;;;;16.97;7.87;;;;;;;-0.05;90.26;98521.41;5092843;28;20059;-80
2021/01/06 02:59:02;;;;;;;13.77;7.57;;;;;;;-0.16;90.33;98515.34;5092968;28;20044;-80
2021/01/06 03:01:33;;;;;;;14.47;7.50;;;;;;;-0.14;90.42;98508.88;5092509;28;20051;-80
2021/01/06 03:04:01;;;;;;;14.30;6.87;;;;;;;-0.10;90.21;98520.16;5092654;28;20492;-80
2021/01/06 03:06:35;;;;;;;17.13;8.77;;;;;;;-0.13;90.19;98502.56;5091992;28;20040;-80
2021/01/06 03:09:02;;;;;;;16.03;7.53;;;;;;;-0.08;89.90;98513.69;5092716;28;20044;-80
2021/01/06 03:11:28;;;;;;;17.73;7.60;;;;;;;-0.11;90.03;98510.44;5090939;28;20105;-81
2021/01/06 03:13:56;;;;;;;16.27;7.60;;;;;;;-0.04;90.40;98517.78;5092386;28;20052;-80
2021/01/06 03:16:22;;;;;;;14.83;7.70;;;;;;;0.05;89.69;98521.47;5092582;28;20086;-80
2021/01/06 03:18:49;;;;;;;17.17;8.47;;;;;;;-0.11;89.85;98508.59;5092188;28;20052;-81
2021/01/06 03:21:16;;;;;;;19.10;9.00;;;;;;;-0.02;89.99;98510.47;5092497;28;20419;-80
2021/01/06 03:23:49;;;;;;;20.13;8.53;;;;;;;-0.05;89.76;98520.59;5092213;28;20056;-81
2021/01/06 03:26:19;;;;;;;20.70;8.97;;;;;;;-0.09;89.60;98511.13;5092326;28;20051;-81
2021/01/06 03:28:48;;;;;;;16.77;7.90;;;;;;;-0.07;89.82;98512.72;5092091;28;20089;-80
2021/01/06 03:31:20;;;;;;;17.03;7.73;;;;;;;-0.05;90.11;98513.41;5091762;28;20048;-81
2021/01/06 03:33:51;;;;;;;15.80;7.83;;;;;;;-0.02;89.72;98510.47;5092153;28;20117;-80
2021/01/06 03:36:22;;;;;;;17.43;8.77;;;;;;;0.07;88.73;98499.97;5090995;28;20047;-80
2021/01/06 03:38:56;;;;;;;17.33;8.23;;;;;;;0.01;88.84;98501.34;5092306;28;20048;-80
2021/01/06 03:41:24;;;;;;;15.90;7.43;;;;;;;-0.15;89.46;98504.53;5091911;28;20436;-81
2021/01/06 03:43:55;;;;;;;13.70;7.27;;;;;;;-0.21;89.25;98489.88;5092321;28;20518;-80
2021/01/06 03:46:26;;;;;;;13.33;7.03;;;;;;;-0.19;89.29;98492.41;5090773;28;20476;-80
2021/01/06 03:49:03;;;;;;;17.27;8.77;;;;;;;0.03;89.11;98498.53;5091764;28;20451;-80
2021/01/06 03:51:38;;;;;;;16.37;7.37;;;;;;;-0.07;88.91;98495.84;5091195;28;20048;-80
2021/01/06 03:54:18;;;;;;;16.23;8.50;;;;;;;-0.01;88.96;98504.16;5091600;28;20443;-81
2021/01/06 03:56:46;;;;;;;14.20;7.53;;;;;;;-0.03;88.63;98505.25;5091416;28;20048;-80
2021/01/06 03:59:18;;;;;;;15.37;7.43;;;;;;;-0.12;89.24;98506.06;5091563;28;20491;-81
2021/01/06 04:01:55;;;;;;;15.93;7.90;;;;;;;-0.07;89.16;98494.00;5091415;28;20052;-80
2021/01/06 04:04:26;;;;;;;14.40;7.93;;;;;;;-0.11;88.53;98483.72;5091303;28;20056;-80
2021/01/06 04:06:55;;;;;;;17.20;8.13;;;;;;;-0.20;89.06;98472.88;5091229;28;20048;-80
2021/01/06 04:09:32;;;;;;;14.02;7.30;;;;;;;-0.02;88.47;98507.78;5091337;28;20508;-80
2021/01/06 04:12:04;;;;;;;12.53;7.03;;;;;;;-0.09;88.95;98490.63;5091525;28;20044;-80
2021/01/06 04:14:30;;;;;;;12.50;6.77;;;;;;;-0.01;89.03;98501.47;5090610;28;20408;-80
2021/01/06 04:17:12;;;;;;;16.50;6.87;;;;;;;0.03;88.69;98494.06;5091604;28;20052;-80
2021/01/06 04:19:46;;;;;;;10.87;6.70;;;;;;;0.03;88.99;98496.72;5086559;28;20146;-81
2021/01/06 04:22:12;;;;;;;12.40;6.73;;;;;;;0.03;88.69;98495.88;5091133;28;20052;-80
2021/01/06 04:24:39;;;;;;;14.07;6.73;;;;;;;-0.02;88.38;98491.75;5091044;28;20048;-80
2021/01/06 04:27:06;;;;;;;12.73;7.13;;;;;;;-0.13;88.80;98473.16;5091348;28;20073;-80
2021/01/06 04:29:34;;;;;;;16.93;6.70;;;;;;;-0.16;88.60;98476.09;5091312;28;20400;-80
2021/01/06 04:32:02;;;;;;;15.07;6.80;;;;;;;-0.06;88.59;98485.00;5090996;28;20048;-80
2021/01/06 04:34:28;;;;;;;12.27;6.33;;;;;;;0.11;88.22;98496.06;5090758;28;20044;-81
2021/01/06 04:36:54;;;;;;;14.00;7.73;;;;;;;-0.07;88.24;98480.63;5090680;28;20557;-80
2021/01/06 04:39:21;;;;;;;10.70;6.20;;;;;;;-0.22;88.64;98473.97;5091902;28;20408;-80
2021/01/06 04:41:55;;;;;;;11.13;6.33;;;;;;;-0.03;89.08;98489.22;5090783;28;20527;-80
2021/01/06 04:44:41;;;;;;;11.73;6.03;;;;;;;-0.15;89.12;98476.94;5090833;28;20189;-80
2021/01/06 04:47:23;;;;;;;9.53;6.27;;;;;;;-0.01;88.72;98484.59;5090963;28;20043;-80
2021/01/06 04:50:09;;;;;;;13.03;6.27;;;;;;;-0.12;88.98;98492.69;5091423;28;20055;-80
2021/01/06 04:52:44;;;;;;;8.47;5.47;;;;;;;-0.01;89.10;98492.63;5090820;28;20052;-81
2021/01/06 04:55:26;;;;;;;9.27;5.53;;;;;;;-0.11;88.66;98481.03;5071130;28;20052;-80
2021/01/06 04:58:20;;;;;;;14.10;6.97;;;;;;;-0.02;87.61;98489.09;5085904;28;20117;-80
2021/01/06 05:01:04;;;;;;;11.83;6.10;;;;;;;0.00;88.34;98505.03;5075492;28;20056;-80
2021/01/06 05:03:49;;;;;;;11.83;6.07;;;;;;;-0.06;89.07;98482.34;5090880;28;20117;-80
2021/01/06 05:06:54;;;;;;;10.60;6.23;;;;;;;-0.02;88.60;98493.59;5090679;28;20484;-80
2021/01/06 05:09:24;;;;;;;8.57;5.27;;;;;;;-0.01;88.28;98490.78;5084294;28;20074;-80
2021/01/06 05:12:00;;;;;;;9.15;5.45;;;;;;;0.06;88.65;98499.13;5091272;28;20097;-80
2021/01/06 05:14:31;;;;;;;9.57;4.93;;;;;;;-0.13;88.32;98486.53;5090594;28;20488;-81
2021/01/06 05:16:58;;;;;;;10.47;5.73;;;;;;;-0.14;88.62;98489.31;5090969;28;20063;-81
2021/01/06 05:19:30;;;;;;;10.33;4.87;;;;;;;-0.07;89.62;98499.34;5090852;28;20485;-80
2021/01/06 05:21:58;;;;;;;9.97;5.23;;;;;;;-0.03;88.20;98498.09;5091038;28;20048;-80
2021/01/06 05:24:30;;;;;;;8.33;5.20;;;;;;;-0.09;88.53;98481.75;5091023;28;20055;-81
2021/01/06 05:27:15;;;;;;;7.37;4.67;;;;;;;-0.09;88.98;98492.44;5091618;28;20040;-80
2021/01/06 05:29:43;;;;;;;10.03;5.97;;;;;;;-0.04;88.36;98492.91;5094572;28;20052;-80
2021/01/06 05:32:16;;;;;;;11.37;5.53;;;;;;;-0.05;88.31;98502.72;5094327;28;20073;-80
2021/01/06 05:34:46;;;;;;;10.17;5.77;;;;;;;-0.02;88.13;98515.81;5094297;28;20044;-80
2021/01/06 05:37:14;;;;;;;;;;;;;;;-0.08;88.10;98505.66;5095094;28;20056;-80
2021/01/06 05:39:40;;;;;;;8.83;5.20;;;;;;;-0.20;87.76;98486.22;5093849;28;20044;-80
2021/01/06 05:42:11;;;;;;;7.20;4.67;;;;;;;-0.15;nan;98507.19;5093984;28;20101;-80
2021/01/06 05:44:37;;;;;;;7.80;4.33;;;;;;;-0.14;88.91;98498.19;5093560;28;20052;-80
2021/01/06 05:47:14;;;;;;;9.37;5.70;;;;;;;-0.12;87.68;98492.69;5094131;28;20082;-80
2021/01/06 05:49:40;;;;;;;12.27;6.03;;;;;;;-0.06;88.38;98500.19;5093994;28;20056;-80
2021/01/06 05:52:15;;;;;;;7.93;4.93;;;;;;;-0.10;87.92;98502.28;5094240;28;20036;-80
2021/01/06 05:54:45;;;;;;;11.17;5.57;;;;;;;-0.08;87.65;98511.00;5094440;28;20044;-80
2021/01/06 05:57:21;;;;;;;12.17;5.90;;;;;;;-0.03;87.73;98519.47;5093850;28;20070;-80
2021/01/06 06:00:19;;;;;;;8.63;5.17;;;;;;;-0.15;88.29;98509.00;5094104;28;20048;-81
2021/01/06 06:03:02;;;;;;;9.50;5.27;;;;;;;-0.12;88.22;98508.72;5084739;28;20416;-80
2021/01/06 06:05:39;;;;;;;8.93;5.50;;;;;;;-0.15;88.43;98501.84;5093420;28;20048;-80
2021/01/06 06:08:28;;;;;;;8.87;5.00;;;;;;;-0.09;88.54;98513.81;5093362;28;20063;-80
2021/01/06 06:11:10;;;;;;;9.03;6.30;;;;;;;0.02;87.65;98510.22;5093612;28;20051;-80
2021/01/06 06:14:01;;;;;;;8.70;5.60;;;;;;;-0.03;88.21;98507.94;5093890;28;20143;-80
2021/01/06 06:16:46;;;;;;;7.90;4.70;;;;;;;-0.10;87.85;98504.13;5093565;28;20105;-80
2021/01/06 06:19:32;;;;;;;9.43;5.10;;;;;;;0.01;87.67;98506.69;5083452;28;20052;-80
2021/01/06 06:22:07;;;;;;;14.80;5.40;;;;;;;-0.03;87.42;98519.47;5093457;28;20051;-80
2021/01/06 06:24:42;;;;;;;7.80;5.07;;;;;;;-0.24;87.93;98491.94;5093386;28;20056;-80
2021/01/06 06:27:35;;;;;;;7.27;4.43;;;;;;;-0.09;88.41;98514.69;5093680;28;20052;-80
2021/01/06 06:30:18;;;;;;;7.70;5.10;;;;;;;-0.07;88.58;98510.03;5091717;28;20060;-80
2021/01/06 06:32:48;;;;;;;8.87;5.57;;;;;;;-0.04;87.78;98509.75;5093833;28;20052;-80
2021/01/06 06:35:24;;;;;;;7.32;4.40;;;;;;;-0.09;88.13;98509.34;5092984;28;20408;-80
2021/01/06 06:37:54;;;;;;;9.03;4.73;;;;;;;-0.12;88.88;98509.59;5093214;28;20040;-80
2021/01/06 06:40:21;;;;;;;;;;;;;;;-0.01;88.17;98511.34;5093698;28;20044;-80
2021/01/06 06:42:54;;;;;;;7.13;4.63;;;;;;;-0.18;88.59;98507.47;5092837;28;19934;-80
2021/01/06 06:45:45;;;;;;;9.07;5.13;;;;;;;-0.01;87.71;98530.88;5092439;28;20135;-80
2021/01/06 06:48:18;;;;;;;6.87;4.60;;;;;;;-0.07;87.86;98530.56;5073032;28;20102;-80
2021/01/06 06:50:52;;;;;;;7.60;4.90;;;;;;;-0.04;87.51;98530.31;5076405;28;20051;-80
2021/01/06 06:53:28;;;;;;;8.97;5.00;;;;;;;-0.11;87.65;98535.31;5092907;28;20040;-80
2021/01/06 06:56:11;;;;;;;8.37;4.93;;;;;;;-0.12;87.81;98522.97;5092785;28;20138;-80
2021/01/06 06:58:47;;;;;;;8.67;4.77;;;;;;;-0.10;88.55;98539.69;5092971;28;20052;-80
2021/01/06 07:01:16;;;;;;;11.60;5.10;;;;;;;-0.13;88.41;98529.28;5093125;28;20052;-80
2021/01/06 07:03:53;;;;;;;8.82;4.63;;;;;;;-0.07;88.09;98535.91;5092893;28;20094;-80
2021/01/06 07:06:19;;;;;;;8.77;4.50;;;;;;;-0.10;88.45;98529.00;5092837;28;20052;-80
2021/01/06 07:08:49;;;;;;;5.13;3.97;;;;;;;-0.10;88.80;98528.16;5095052;28;20618;-80
2021/01/06 07:11:28;;;;;;;8.88;4.85;;;;;;;-0.14;87.82;98524.06;5093335;28;20040;-80
2021/01/06 07:14:01;;;;;;;9.03;4.90;;;;;;;-0.15;87.88;98525.03;5092554;28;20557;-80
2021/01/06 07:16:34;;;;;;;7.07;4.77;;;;;;;-0.14;87.38;98532.06;5092458;28;20060;-80
2021/01/06 07:19:21;;;;;;;6.97;4.03;;;;;;;-0.10;88.09;98537.03;5092326;28;20126;-80
2021/01/06 07:21:57;;;;;;;8.83;4.77;;;;;;;-0.10;88.30;98545.03;5089670;28;20489;-80
2021/01/06 07:24:25;;;;;;;8.07;4.93;;;;;;;-0.13;88.83;98550.66;5088190;28;20507;-80
2021/01/06 07:26:55;;;;;;;8.90;4.67;;;;;;;-0.15;88.37;98543.72;5081344;28;20070;-80
2021/01/06 07:29:24;;;;;;;8.27;4.87;;;;;;;-0.19;88.67;98537.81;5092485;28;20048;-81
2021/01/06 07:31:58;;;;;;;8.87;5.50;;;;;;;-0.13;88.58;98555.16;5092229;28;20135;-80
2021/01/06 07:34:37;;;;;;;10.77;5.03;;;;;;;-0.14;88.95;98559.63;5089862;28;20416;-80
2021/01/06 07:37:06;;;;;;;10.83;5.27;;;;;;;-0.08;88.97;98552.91;5090239;28;20512;-80
2021/01/06 07:39:36;;;;;;;21.10;8.13;;;;;;;-0.20;89.06;98550.34;5083078;28;20087;-80
2021/01/06 07:42:06;;;;;;;8.70;5.38;;;;;;;-0.35;89.47;98551.63;5076610;28;20126;-80
2021/01/06 07:44:34;;;;;;;8.00;4.90;;;;;;;-0.41;89.64;98528.13;5090860;28;20110;-80
2021/01/06 07:47:12;;;;;;;11.80;5.80;;;;;;;-0.31;89.19;98549.56;5092763;28;20052;-81
2021/01/06 07:49:47;;;;;;;7.60;4.70;;;;;;;-0.34;89.69;98561.34;5091470;28;20109;-79
2021/01/06 07:52:39;;;;;;;8.30;4.47;;;;;;;-0.23;89.52;98555.91;5091075;28;20051;-80
2021/01/06 07:55:22;;;;;;;9.73;5.20;;;;;;;-0.38;89.58;98552.75;5091324;28;20396;-80
2021/01/06 07:57:53;;;;;;;8.87;5.50;;;;;;;-0.28;89.84;98574.19;5091490;28;20565;-80
2021/01/06 08:00:28;;;;;;;11.57;6.20;;;;;;;-0.15;89.82;98584.69;5091176;28;20497;-80
2021/01/06 08:03:05;;;;;;;10.87;4.90;;;;;;;-0.43;90.13;98556.78;5091409;28;20101;-80
2021/01/06 08:05:33;;;;;;;8.13;4.80;;;;;;;-0.27;89.59;98561.66;5088271;28;20108;-80
2021/01/06 08:08:16;;;;;;;8.07;4.67;;;;;;;-0.19;89.49;98583.25;5081946;28;20053;-80
2021/01/06 08:10:45;;;;;;;9.80;5.10;;;;;;;-0.23;89.41;98582.63;5086147;28;20143;-80
2021/01/06 08:13:23;;;;;;;10.77;5.87;;;;;;;-0.18;90.04;98590.28;5076829;28;20063;-80
2021/01/06 08:15:52;;;;;;;9.43;5.17;;;;;;;-0.23;90.15;98585.31;5071356;28;20048;-80
2021/01/06 08:18:26;;;;;;;9.00;5.53;;;;;;;-0.19;90.08;98588.59;5086754;28;20048;-80
2021/01/06 08:21:03;;;;;;;9.63;5.87;;;;;;;-0.31;89.81;98566.44;5075146;28;20053;-80
2021/01/06 08:23:49;;;;;;;11.37;6.47;;;;;;;-0.27;89.97;98567.88;5086083;28;20056;-80
2021/01/06 08:26:20;;;;;;;9.33;5.30;;;;;;;-0.45;90.56;98572.06;5084912;28;20068;-80
2021/01/06 08:28:47;;;;;;;9.00;4.80;;;;;;;-0.22;89.98;98583.50;5080796;28;20063;-81
2021/01/06 08:31:16;;;;;;;9.00;4.60;;;;;;;-0.37;90.80;98583.81;5088396;28;20101;-80
2021/01/06 08:33:47;;;;;;;10.07;5.18;;;;;;;-0.20;89.59;98578.88;5073688;28;20399;-80
2021/01/06 08:36:22;;;;;;;12.10;5.27;;;;;;;-0.29;90.20;98582.31;5085800;28;20052;-80
2021/01/06 08:38:49;;;;;;;8.40;5.53;;;;;;;-0.32;90.39;98580.75;5090653;28;20048;-81
2021/01/06 08:41:17;;;;;;;6.80;4.17;;;;;;;-0.43;90.69;98576.31;5091270;28;20515;-81
2021/01/06 08:43:44;;;;;;;8.83;4.93;;;;;;;-0.28;90.70;98590.22;5090850;28;20055;-80
2021/01/06 08:46:22;;;;;;;8.77;4.93;;;;;;;-0.27;90.29;98593.72;5081377;28;20047;-80
2021/01/06 08:48:49;;;;;;;8.20;5.03;;;;;;;-0.21;90.06;98583.38;5078113;28;20102;-80
2021/01/06 08:51:25;;;;;;;8.63;5.17;;;;;;;-0.26;90.09;98585.56;5075978;28;20074;-81
2021/01/06 08:53:52;;;;;;;9.13;5.07;;;;;;;-0.19;89.99;98588.59;5075432;28;20045;-81
2021/01/06 08:56:23;;;;;;;8.87;5.00;;;;;;;-0.27;90.40;98591.03;5090893;28;20060;-81
2021/01/06 08:58:51;;;;;;;10.83;5.50;;;;;;;-0.26;90.47;98579.38;5074031;28;20080;-81
2021/01/06 09:01:30;;;;;;;10.27;5.73;;;;;;;-0.23;90.84;98581.78;5093131;28;20048;-81
2021/01/06 09:04:03;;;;;;;11.80;5.80;;;;;;;-0.24;90.07;98585.44;5089700;28;20192;-81
2021/01/06 09:06:30;;;;;;;9.57;6.03;;;;;;;-0.23;90.06;98582.63;5094960;28;20466;-81
2021/01/06 09:09:15;;;;;;;11.23;5.63;;;;;;;-0.12;90.11;98586.22;5094772;28;20048;-81
2021/01/06 09:11:50;;;;;;;10.87;6.83;;;;;;;-0.09;89.76;98584.16;5094395;28;20036;-81
2021/01/06 09:14:28;;;;;;;10.63;6.33;;;;;;;0.04;89.35;98591.09;5093845;28;20043;-80
2021/01/06 09:17:01;;;;;;;11.27;6.07;;;;;;;0.06;89.25;98595.34;5095224;28;20499;-81
2021/01/06 09:19:36;;;;;;;14.77;6.10;;;;;;;0.03;89.70;98590.28;5095520;28;20391;-81
2021/01/06 09:22:03;;;;;;;12.10;7.40;;;;;;;0.05;89.19;98585.63;5094639;28;20086;-81
2021/01/06 09:24:33;;;;;;;13.83;7.60;;;;;;;0.02;88.63;98591.25;5094549;27;20048;-81
2021/01/06 09:27:05;;;;;;;13.00;6.78;;;;;;;0.12;89.11;98593.94;5094573;28;20514;-81
2021/01/06 09:29:36;;;;;;;10.37;6.07;;;;;;;0.09;89.13;98599.56;5094089;28;20044;-81
2021/01/06 09:32:10;;;;;;;;;;;;;;;0.13;89.48;98603.69;5074722;28;20048;-80
2021/01/06 09:34:44;;;;;;;19.50;6.70;;;;;;;0.15;89.35;98607.06;5083491;28;19951;-81
2021/01/06 09:37:18;;;;;;;8.63;5.40;;;;;;;-0.07;89.50;98571.50;5094353;28;20035;-81
2021/01/06 09:39:47;;;;;;;12.07;5.70;;;;;;;0.19;89.66;98608.50;5094771;28;20056;-81
2021/01/06 09:42:18;;;;;;;9.03;4.67;;;;;;;0.23;89.87;98609.94;5093440;28;20411;-80
2021/01/06 09:44:44;;;;;;;9.77;5.90;;;;;;;0.31;89.53;98618.13;5093963;27;20052;-79
2021/01/06 09:47:22;;;;;;;9.25;5.72;;;;;;;0.32;89.60;98611.78;5094172;28;20067;-82
2021/01/06 09:49:56;;;;;;;8.77;4.60;;;;;;;0.27;88.95;98607.81;5096448;28;20044;-81
2021/01/06 09:52:28;;;;;;;7.07;4.97;;;;;;;0.25;88.60;98599.09;5095753;28;20048;-80
2021/01/06 09:54:56;;;;;;;12.13;6.30;;;;;;;0.16;88.33;98585.53;5096090;28;20056;-80
2021/01/06 09:57:23;;;;;;;11.00;5.23;;;;;;;0.26;88.86;98606.16;5096054;28;20655;-81
2021/01/06 09:59:53;;;;;;;11.37;5.57;;;;;;;0.25;88.22;98596.41;5096121;28;20454;-80
2021/01/06 10:02:25;;;;;;;8.63;5.68;;;;;;;0.35;88.55;98613.38;5096103;28;20047;-80
2021/01/06 10:04:53;;;;;;;9.97;5.37;;;;;;;0.43;88.42;98615.38;5095829;28;20051;-81
2021/01/06 10:07:39;;;;;;;8.60;5.63;;;;;;;0.32;88.50;98598.44;5095681;28;20051;-81
2021/01/06 10:10:12;;;;;;;9.75;5.55;;;;;;;0.45;87.76;98608.91;5095093;28;20052;-82
2021/01/06 10:13:00;;;;;;;7.90;5.70;;;;;;;0.43;88.19;98594.81;5094569;28;20082;-82
2021/01/06 10:15:40;;;;;;;10.87;5.57;;;;;;;0.45;88.57;98603.56;5078370;28;20059;-81
2021/01/06 10:18:22;;;;;;;9.73;5.63;;;;;;;0.32;88.60;98579.72;5095600;28;20055;-82
2021/01/06 10:20:55;;;;;;;9.43;5.23;;;;;;;0.49;88.66;98599.63;5095357;28;20480;-81
2021/01/06 10:23:37;;;;;;;11.53;5.40;;;;;;;0.52;88.15;98612.72;5094956;28;20055;-81
2021/01/06 10:26:30;;;;;;;6.40;4.45;;;;;;;0.51;88.14;98604.81;5093118;28;20047;-81
2021/01/06 10:29:08;;;;;;;8.63;4.60;;;;;;;0.31;88.14;98575.34;5075553;28;20514;-81
2021/01/06 10:32:00;;;;;;;9.03;4.83;;;;;;;0.38;88.14;98585.50;5074553;28;20048;-81
2021/01/06 10:34:33;;;;;;;9.73;5.13;;;;;;;0.32;88.96;98585.06;5074339;28;20406;-81
2021/01/06 10:37:23;;;;;;;10.10;5.80;;;;;;;0.25;88.85;98572.38;5087595;28;20048;-85
2021/01/06 10:39:52;;;;;;;11.50;6.30;;;;;;;0.36;89.19;98604.34;5074748;28;20460;-83
2021/01/06 10:42:36;;;;;;;7.27;5.13;;;;;;;0.36;89.25;98596.31;5093126;28;20518;-83
2021/01/06 10:45:12;;;;;;;12.23;6.37;;;;;;;0.39;88.56;98590.69;5092883;28;20048;-82
2021/01/06 10:47:45;;;;;;;9.10;5.30;;;;;;;0.40;88.98;98602.25;5092567;28;20044;-79
2021/01/06 10:50:46;;;;;;;11.48;6.60;;;;;;;0.45;88.84;98595.53;5093063;28;20051;-79
2021/01/06 10:53:24;;;;;;;;;;;;;;;0.43;88.44;98602.84;5093415;28;20048;-79
2021/01/06 10:55:54;;;;;;;10.83;6.33;;;;;;;0.49;88.89;98596.09;5092950;28;19927;-79
2021/01/06 10:58:34;;;;;;;11.50;7.03;;;;;;;0.40;88.91;98599.59;5092644;28;20048;-79
2021/01/06 11:01:18;;;;;;;;;;;;;;;0.41;89.35;98590.59;5093272;28;20157;-79
2021/01/06 11:04:07;;;;;;;9.73;5.97;;;;;;;0.50;88.75;98593.28;5092479;28;19950;-78
2021/01/06 11:06:39;;;;;;;14.70;8.30;;;;;;;0.40;88.80;98579.03;5092669;28;20052;-79
2021/01/06 11:09:50;;;;;;;10.80;6.50;;;;;;;0.49;88.74;98586.25;5092781;28;20650;-79
2021/01/06 11:12:32;;;;;;;12.07;6.57;;;;;;;0.39;89.29;98588.03;5049692;28;20094;-79
2021/01/06 11:15:26;;;;;;;11.17;6.73;;;;;;;0.49;88.54;98582.72;5090988;28;20055;-79
2021/01/06 11:18:17;;;;;;;8.93;5.97;;;;;;;0.54;88.78;98588.50;5092739;28;20056;-80
2021/01/06 11:20:48;;;;;;;11.90;7.20;;;;;;;0.42;88.07;98589.59;5092749;28;20450;-79
2021/01/06 11:23:52;;;;;;;12.13;7.33;;;;;;;0.46;89.35;98583.00;5092484;28;20135;-79
2021/01/06 11:26:54;;;;;;;8.63;5.87;;;;;;;0.61;88.14;98584.31;5048813;28;20056;-79
2021/01/06 11:29:46;;;;;;;11.97;6.60;;;;;;;0.63;88.49;98590.41;5032950;28;20049;-79
2021/01/06 11:32:40;;;;;;;9.83;6.23;;;;;;;0.50;88.34;98581.75;5087624;28;20077;-79
2021/01/06 11:35:29;;;;;;;10.37;5.53;;;;;;;0.31;89.42;98561.97;5087269;28;20492;-79
2021/01/06 11:37:59;;;;;;;13.00;7.43;;;;;;;0.50;89.15;98581.75;5092117;28;20048;-79
2021/01/06 11:40:53;;;;;;;11.60;6.63;;;;;;;0.46;89.56;98577.66;5091073;28;20043;-79
2021/01/06 11:43:38;;;;;;;12.47;7.60;;;;;;;0.34;89.98;98571.56;5092125;28;20052;-79
2021/01/06 11:46:44;;;;;;;12.55;7.82;;;;;;;0.34;89.24;98560.84;5091110;28;20048;-79
2021/01/06 11:49:57;;;;;;;15.53;8.63;;;;;;;0.44;89.70;98566.25;5056559;28;20054;-79
2021/01/06 11:52:41;;;;;;;18.03;9.70;;;;;;;0.39;89.68;98573.81;5048550;28;20667;-79
2021/01/06 11:55:33;;;;;;;10.53;7.47;;;;;;;0.46;89.12;98566.97;5090233;28;20055;-79
2021/01/06 11:58:13;;;;;;;39.57;19.40;;;;;;;0.56;88.97;98564.31;5091276;28;20059;-79
2021/01/06 12:01:11;;;;;;;22.17;11.65;;;;;;;0.43;89.19;98565.38;5070027;28;20049;-79
2021/01/06 12:04:02;;;;;;;24.50;13.40;;;;;;;0.46;89.02;98559.78;5065774;28;20094;-79
2021/01/06 12:06:46;;;;;;;14.90;9.20;;;;;;;0.40;89.97;98563.00;5070890;28;20040;-79